createdAt,value
2022-12-20T00:01:26.556Z,101309.47
2022-12-20T00:03:56.256Z,101314.38
2022-12-20T00:06:24.567Z,101317.69
2022-12-20T00:08:54.994Z,101304.66
2022-12-20T00:11:22.122Z,101303.16
2022-12-20T00:13:50.616Z,101301.50
2022-12-20T00:16:20.222Z,101297.84
2022-12-20T00:18:50.907Z,101297.03
2022-12-20T00:21:17.944Z,101289.56
2022-12-20T00:23:45.006Z,101284.56
2022-12-20T00:26:15.370Z,101283.41
2022-12-20T00:28:44.503Z,101278.59
2022-12-20T00:31:17.180Z,101268.88
2022-12-20T00:33:47.925Z,101284.34
2022-12-20T00:36:17.139Z,101277.56
2022-12-20T00:38:45.243Z,101289.78
2022-12-20T00:41:14.689Z,101282.50
2022-12-20T00:43:42.357Z,101279.50
2022-12-20T00:46:13.067Z,101281.34
2022-12-20T00:48:40.445Z,101278.69
2022-12-20T00:51:11.439Z,101275.41
2022-12-20T00:53:39.583Z,101276.22
2022-12-20T00:56:08.060Z,101274.88
2022-12-20T00:58:37.048Z,101270.22
2022-12-20T01:01:05.065Z,101272.34
2022-12-20T01:03:34.285Z,101278.59
2022-12-20T01:06:02.695Z,101274.78
2022-12-20T01:08:31.174Z,101279.09
2022-12-20T01:11:00.939Z,101277.91
2022-12-20T01:13:28.921Z,101279.38
2022-12-20T01:15:56.289Z,101267.63
2022-12-20T01:18:23.597Z,101265.78
2022-12-20T01:21:02.579Z,101268.59
2022-12-20T01:23:30.158Z,101264.44
2022-12-20T01:25:59.358Z,101261.78
2022-12-20T01:28:27.220Z,101264.72
2022-12-20T01:30:54.319Z,101265.81
2022-12-20T01:33:21.461Z,101259.81
2022-12-20T01:35:58.342Z,101267.22
2022-12-20T01:38:26.173Z,101271.47
2022-12-20T01:40:53.786Z,101267.56
2022-12-20T01:43:22.324Z,101272.84
2022-12-20T01:45:49.679Z,101271.22
2022-12-20T01:48:22.167Z,101262.56
2022-12-20T01:50:53.458Z,101258.53
2022-12-20T01:53:24.284Z,101261.81
2022-12-20T01:55:51.519Z,101265.75
2022-12-20T01:58:21.898Z,101261.81
2022-12-20T02:00:49.350Z,101261.53
2022-12-20T02:03:17.298Z,101256.72
2022-12-20T02:05:46.734Z,101251.44
2022-12-20T02:08:17.274Z,101250.41
2022-12-20T02:11:08.372Z,101253.06
2022-12-20T02:13:47.849Z,101241.47
2022-12-20T02:16:25.209Z,101240.78
2022-12-20T02:19:05.065Z,101225.31
2022-12-20T02:21:39.497Z,101224.34
2022-12-20T02:24:48.175Z,101223.03
2022-12-20T02:27:41.180Z,101218.38
2022-12-20T02:30:15.304Z,101226.72
2022-12-20T02:32:50.081Z,101224.50
2022-12-20T02:35:22.870Z,101224.34
2022-12-20T02:37:53.290Z,101219.47
2022-12-20T02:40:25.636Z,101219.94
2022-12-20T02:42:59.229Z,101220.38
2022-12-20T02:45:33.914Z,101220.13
2022-12-20T02:48:07.703Z,101222.13
2022-12-20T02:50:40.285Z,101220.88
2022-12-20T02:53:09.837Z,101217.84
2022-12-20T02:55:46.891Z,101213.19
2022-12-20T02:58:26.127Z,101205.81
2022-12-20T03:00:59.547Z,101211.28
2022-12-20T03:03:26.696Z,101210.44
2022-12-20T03:05:55.758Z,101207.63
2022-12-20T03:08:23.916Z,101199.34
2022-12-20T03:10:53.206Z,101209.38
2022-12-20T03:13:21.115Z,101208.16
2022-12-20T03:15:48.178Z,101208.59
2022-12-20T03:18:16.549Z,101198.47
2022-12-20T03:20:43.852Z,101212.34
2022-12-20T03:23:11.137Z,101217.66
2022-12-20T03:25:38.194Z,101198.91
2022-12-20T03:28:05.157Z,101201.75
2022-12-20T03:30:32.318Z,101195.19
2022-12-20T03:32:59.323Z,101205.75
2022-12-20T03:35:27.616Z,101201.84
2022-12-20T03:37:55.561Z,101209.44
2022-12-20T03:40:23.215Z,101214.38
2022-12-20T03:42:50.191Z,101208.69
2022-12-20T03:45:17.477Z,101200.19
2022-12-20T03:47:44.645Z,101200.28
2022-12-20T03:50:12.383Z,101205.19
2022-12-20T03:52:40.753Z,101194.22
2022-12-20T03:55:09.650Z,101193.03
2022-12-20T03:57:36.687Z,101193.88
2022-12-20T04:00:04.940Z,101188.91
2022-12-20T04:02:32.191Z,101190.56
2022-12-20T04:04:59.267Z,101190.22
2022-12-20T04:07:26.233Z,101188.22
2022-12-20T04:09:54.599Z,101189.03
2022-12-20T04:12:21.553Z,101191.50
2022-12-20T04:14:48.491Z,101191.50
2022-12-20T04:17:15.728Z,101189.22
2022-12-20T04:19:42.720Z,101189.84
2022-12-20T04:22:10.059Z,101193.94
2022-12-20T04:24:38.120Z,101196.41
2022-12-20T04:27:06.497Z,101183.81
2022-12-20T04:29:33.470Z,101189.13
2022-12-20T04:32:00.542Z,101193.38
2022-12-20T04:34:27.872Z,101199.69
2022-12-20T04:36:54.885Z,101188.28
2022-12-20T04:39:21.904Z,101180.13
2022-12-20T04:41:48.968Z,101176.50
2022-12-20T04:44:17.543Z,101169.19
2022-12-20T04:46:44.568Z,101160.59
2022-12-20T04:49:11.599Z,101174.84
2022-12-20T04:51:38.524Z,101172.56
2022-12-20T04:54:05.780Z,101153.22
2022-12-20T04:56:32.965Z,101165.84
2022-12-20T04:59:00.144Z,101166.00
2022-12-20T05:01:28.628Z,101166.38
2022-12-20T05:03:56.063Z,101172.03
2022-12-20T05:06:23.070Z,101163.38
2022-12-20T05:08:50.203Z,101160.91
2022-12-20T05:11:17.706Z,101166.63
2022-12-20T05:13:44.771Z,101167.91
2022-12-20T05:16:12.099Z,101169.53
2022-12-20T05:18:44.671Z,101172.81
2022-12-20T05:21:34.582Z,101166.53
2022-12-20T05:24:20.458Z,101167.53
2022-12-20T05:26:47.487Z,101166.91
2022-12-20T05:29:14.476Z,101157.31
2022-12-20T05:31:41.735Z,101150.31
2022-12-20T05:34:10.190Z,101147.59
2022-12-20T05:36:37.239Z,101148.31
2022-12-20T05:39:04.924Z,101147.59
2022-12-20T05:41:32.163Z,101139.19
2022-12-20T05:43:59.363Z,101142.47
2022-12-20T05:46:26.499Z,101136.34
2022-12-20T05:48:53.529Z,101139.75
2022-12-20T05:51:21.951Z,101143.66
2022-12-20T05:53:49.088Z,101155.91
2022-12-20T05:56:16.186Z,101151.69
2022-12-20T05:58:43.178Z,101169.75
2022-12-20T06:01:10.516Z,101184.66
2022-12-20T06:03:38.159Z,101175.88
2022-12-20T06:06:13.623Z,101181.34
2022-12-20T06:08:43.139Z,101186.22
2022-12-20T06:11:10.400Z,101193.22
2022-12-20T06:13:37.520Z,101202.09
2022-12-20T06:16:05.170Z,101178.81
2022-12-20T06:18:32.185Z,101177.50
2022-12-20T06:20:59.379Z,101179.72
2022-12-20T06:23:26.343Z,101179.09
2022-12-20T06:25:55.165Z,101181.91
2022-12-20T06:28:22.362Z,101179.09
2022-12-20T06:30:53.743Z,101171.31
2022-12-20T06:33:21.085Z,101172.16
2022-12-20T06:35:50.349Z,101165.59
2022-12-20T06:38:18.005Z,101153.34
2022-12-20T06:40:45.319Z,101151.34
2022-12-20T06:43:13.664Z,101157.28
2022-12-20T06:45:42.076Z,101142.03
2022-12-20T06:48:09.908Z,101154.25
2022-12-20T06:50:37.656Z,101143.66
2022-12-20T06:53:04.813Z,101163.22
2022-12-20T06:55:31.860Z,101152.72
2022-12-20T06:57:58.904Z,101148.00
2022-12-20T07:00:27.519Z,101150.44
2022-12-20T07:02:55.066Z,101146.81
2022-12-20T07:05:22.545Z,101136.22
2022-12-20T07:07:49.711Z,101141.94
2022-12-20T07:10:17.241Z,101142.41
2022-12-20T07:12:48.159Z,101138.75
2022-12-20T07:15:16.032Z,101141.13
2022-12-20T07:17:46.828Z,101146.03
2022-12-20T07:20:15.048Z,101144.41
2022-12-20T07:22:42.432Z,101146.03
2022-12-20T07:25:11.278Z,101138.34
2022-12-20T07:27:38.401Z,101141.47
2022-12-20T07:30:07.476Z,101150.22
2022-12-20T07:32:34.614Z,101133.16
2022-12-20T07:35:02.945Z,101141.56
2022-12-20T07:37:30.379Z,101138.53
2022-12-20T07:39:57.454Z,101143.06
2022-12-20T07:42:31.967Z,101141.03
2022-12-20T07:45:02.744Z,101144.34
2022-12-20T07:47:29.965Z,101138.00
2022-12-20T07:49:57.004Z,101135.00
2022-12-20T07:52:28.726Z,101136.03
2022-12-20T07:55:02.609Z,101139.53
2022-12-20T07:57:38.072Z,101130.69
2022-12-20T08:00:08.653Z,101133.75
2022-12-20T08:02:44.572Z,101127.78
2022-12-20T08:05:12.472Z,101119.47
2022-12-20T08:07:43.477Z,101122.31
2022-12-20T08:10:14.245Z,101121.88
2022-12-20T08:12:45.145Z,101116.56
2022-12-20T08:15:13.230Z,101111.91
2022-12-20T08:17:41.092Z,101118.47
2022-12-20T08:20:10.197Z,101108.88
2022-12-20T08:22:37.290Z,101107.69
2022-12-20T08:25:07.435Z,101108.13
2022-12-20T08:27:34.488Z,101108.75
2022-12-20T08:30:01.495Z,101101.06
2022-12-20T08:32:29.356Z,101096.38
2022-12-20T08:34:56.465Z,101112.69
2022-12-20T08:37:23.501Z,101106.66
2022-12-20T08:39:50.533Z,101103.81
2022-12-20T08:42:19.102Z,101101.72
2022-12-20T08:44:46.292Z,101107.44
2022-12-20T08:47:13.349Z,101095.66
2022-12-20T08:49:47.214Z,101096.13
2022-12-20T08:52:14.840Z,101096.75
2022-12-20T08:54:41.838Z,101099.41
2022-12-20T08:57:09.246Z,101108.06
2022-12-20T08:59:37.585Z,101099.69
2022-12-20T09:02:04.954Z,101097.94
2022-12-20T09:04:32.287Z,101097.72
2022-12-20T09:06:59.306Z,101104.44
2022-12-20T09:09:26.491Z,101093.25
2022-12-20T09:11:56.168Z,101085.72
2022-12-20T09:14:23.901Z,101092.69
2022-12-20T09:16:52.271Z,101086.59
2022-12-20T09:19:19.259Z,101082.53
2022-12-20T09:21:46.215Z,101084.63
2022-12-20T09:24:13.131Z,101069.16
2022-12-20T09:26:42.998Z,101067.16
2022-12-20T09:29:12.847Z,101069.19
2022-12-20T09:31:39.927Z,101067.56
2022-12-20T09:34:10.078Z,101068.38
2022-12-20T09:36:38.162Z,101071.59
2022-12-20T09:39:05.189Z,101068.16
2022-12-20T09:41:38.356Z,101068.59
2022-12-20T09:44:15.319Z,101068.41
2022-12-20T09:46:45.967Z,101073.47
2022-12-20T09:49:19.108Z,101070.22
2022-12-20T09:52:23.299Z,101076.66
2022-12-20T09:55:13.633Z,101074.41
2022-12-20T09:57:57.567Z,101083.00
2022-12-20T10:00:24.717Z,101062.66
2022-12-20T10:03:08.854Z,101069.81
2022-12-20T10:05:49.359Z,101064.31
2022-12-20T10:08:43.658Z,101047.16
2022-12-20T10:11:51.068Z,101042.28
2022-12-20T10:14:57.651Z,101045.13
2022-12-20T10:17:49.780Z,101030.22
2022-12-20T10:20:34.823Z,101024.13
2022-12-20T10:23:15.311Z,101025.38
2022-12-20T10:25:44.976Z,101020.28
2022-12-20T10:28:18.906Z,101016.59
2022-12-20T10:30:46.195Z,101017.00
2022-12-20T10:33:22.078Z,101003.53
2022-12-20T10:35:50.790Z,101001.50
2022-12-20T10:38:22.850Z,100998.03
2022-12-20T10:44:11.535Z,101009.06
2022-12-20T10:46:43.544Z,101006.03
2022-12-20T10:49:32.172Z,100994.38
2022-12-20T10:52:15.321Z,101006.63
2022-12-20T10:54:46.567Z,101001.13
2022-12-20T10:57:21.496Z,100994.59
2022-12-20T10:59:54.317Z,100990.31
2022-12-20T11:02:34.941Z,100982.94
2022-12-20T11:05:24.368Z,100987.63
2022-12-20T11:10:51.844Z,100979.06
2022-12-20T11:13:29.073Z,100979.47
2022-12-20T11:16:01.525Z,100978.25
2022-12-20T11:18:45.375Z,100978.66
2022-12-20T11:21:31.054Z,100982.53
2022-12-20T11:24:11.612Z,100982.72
2022-12-20T11:27:15.609Z,100975.38
2022-12-20T11:30:18.415Z,100976.59
2022-12-20T11:33:30.412Z,100969.25
2022-12-20T11:36:05.198Z,100974.97
2022-12-20T11:38:42.530Z,100970.91
2022-12-20T11:41:29.433Z,100966.38
2022-12-20T11:44:25.725Z,100965.41
2022-12-20T11:47:32.417Z,100963.94
2022-12-20T11:50:32.687Z,100955.97
2022-12-20T11:53:08.713Z,100965.59
2022-12-20T11:55:41.711Z,100960.47
2022-12-20T11:58:20.128Z,100965.78
2022-12-20T12:00:56.859Z,100953.72
2022-12-20T12:03:33.706Z,100959.44
2022-12-20T12:06:07.123Z,100947.41
2022-12-20T12:08:46.784Z,100939.03
2022-12-20T12:12:03.824Z,100942.72
2022-12-20T12:14:25.826Z,100930.25
2022-12-20T12:17:05.174Z,100927.59
2022-12-20T12:19:43.136Z,100931.28
2022-12-20T12:22:21.871Z,100925.97
2022-12-20T12:24:54.226Z,100923.94
2022-12-20T12:27:27.390Z,100922.69
2022-12-20T12:29:58.104Z,100923.09
2022-12-20T12:32:33.037Z,100912.47
2022-12-20T12:35:23.872Z,100917.78
2022-12-20T12:38:09.227Z,100914.97
2022-12-20T12:41:14.997Z,100914.94
2022-12-20T12:43:50.077Z,100916.16
2022-12-20T12:46:25.990Z,100911.28
2022-12-20T12:49:01.663Z,100918.19
2022-12-20T12:51:33.114Z,100906.75
2022-12-20T12:54:21.901Z,100902.50
2022-12-20T12:56:50.764Z,100909.81
2022-12-20T12:59:51.722Z,100919.00
2022-12-20T13:02:52.271Z,100915.09
2022-12-20T13:05:37.043Z,100916.09
2022-12-20T13:08:17.395Z,100912.69
2022-12-20T13:11:01.741Z,100925.94
2022-12-20T13:13:29.244Z,100917.78
2022-12-20T13:16:13.968Z,100908.41
2022-12-20T13:19:10.827Z,100915.75
2022-12-20T13:21:43.825Z,100916.75
2022-12-20T13:24:50.928Z,100927.28
2022-12-20T13:27:45.309Z,100930.34
2022-12-20T13:30:28.563Z,100933.81
2022-12-20T13:33:24.794Z,100933.00
2022-12-20T13:36:25.536Z,100922.00
2022-12-20T13:38:58.678Z,100923.41
2022-12-20T13:41:44.310Z,100915.25
2022-12-20T13:44:40.052Z,100922.59
2022-12-20T13:47:28.349Z,100917.69
2022-12-20T13:49:59.571Z,100914.63
2022-12-20T13:52:31.320Z,100911.97
2022-12-20T13:55:07.868Z,100911.97
2022-12-20T13:57:44.762Z,100902.38
2022-12-20T14:00:18.672Z,100900.94
2022-12-20T14:02:46.142Z,100900.94
2022-12-20T14:05:21.614Z,100894.63
2022-12-20T14:07:58.520Z,100891.16
2022-12-20T14:10:29.934Z,100892.59
2022-12-20T14:12:58.249Z,100898.50
2022-12-20T14:15:30.005Z,100907.06
2022-12-20T14:17:57.865Z,100905.03
2022-12-20T14:20:31.710Z,100907.50
2022-12-20T14:23:05.918Z,100896.69
2022-12-20T14:25:43.081Z,100906.25
2022-12-20T14:28:29.745Z,100902.00
2022-12-20T14:31:00.153Z,100916.47
2022-12-20T14:33:34.250Z,100912.38
2022-12-20T14:36:16.493Z,100917.31
2022-12-20T14:38:46.548Z,100907.72
2022-12-20T14:41:39.406Z,100900.78
2022-12-20T14:44:20.300Z,100904.66
2022-12-20T14:46:52.160Z,100893.44
2022-12-20T14:49:28.068Z,100902.63
2022-12-20T14:52:14.773Z,100899.56
2022-12-20T14:57:42.911Z,100912.00
2022-12-20T15:00:21.336Z,100906.31
2022-12-20T15:02:59.369Z,100903.50
2022-12-20T15:05:43.143Z,100896.16
2022-12-20T15:08:12.377Z,100892.88
2022-12-20T15:10:42.132Z,100880.59
2022-12-20T15:13:16.027Z,100882.28
2022-12-20T15:15:44.041Z,100878.59
2022-12-20T15:18:18.253Z,100885.75
2022-12-20T15:21:00.262Z,100896.53
2022-12-20T15:23:27.435Z,100879.44
2022-12-20T15:25:54.891Z,100887.59
2022-12-20T15:28:26.172Z,100886.78
2022-12-20T15:30:55.216Z,100881.84
2022-12-20T15:33:25.821Z,100880.25
2022-12-20T15:35:53.740Z,100886.78
2022-12-20T15:38:40.948Z,100884.31
2022-12-20T15:41:19.956Z,100889.81
2022-12-20T15:43:51.505Z,100892.91
2022-12-20T15:46:18.511Z,100889.03
2022-12-20T15:48:45.525Z,100893.09
2022-12-20T15:51:18.040Z,100886.16
2022-12-20T15:53:45.319Z,100891.88
2022-12-20T15:56:19.393Z,100893.69
2022-12-20T15:58:49.568Z,100893.31
2022-12-20T16:01:22.136Z,100888.22
2022-12-20T16:03:49.579Z,100888.41
2022-12-20T16:06:17.144Z,100892.06
2022-12-20T16:08:46.594Z,100891.03
2022-12-20T16:11:21.928Z,100890.84
2022-12-20T16:13:51.429Z,100882.66
2022-12-20T16:16:21.612Z,100880.63
2022-12-20T16:18:51.488Z,100880.84
2022-12-20T16:21:21.898Z,100888.00
2022-12-20T16:23:53.157Z,100894.72
2022-12-20T16:26:23.412Z,100893.28
2022-12-20T16:28:54.077Z,100888.19
2022-12-20T16:31:27.795Z,100882.28
2022-12-20T16:33:55.908Z,100879.84
2022-12-20T16:36:24.111Z,100883.09
2022-12-20T16:38:52.342Z,100876.97
2022-12-20T16:41:23.891Z,100880.66
2022-12-20T16:43:52.170Z,100877.78
2022-12-20T16:46:22.097Z,100868.00
2022-12-20T16:48:49.774Z,100874.91
2022-12-20T16:51:24.995Z,100867.56
2022-12-20T16:56:40.790Z,100863.28
2022-12-20T16:59:19.167Z,100865.34
2022-12-20T17:01:49.288Z,100869.22
2022-12-20T17:04:18.980Z,100865.34
2022-12-20T17:06:46.626Z,100867.34
2022-12-20T17:11:58.911Z,100873.31
2022-12-20T17:14:27.195Z,100879.81
2022-12-20T17:16:54.363Z,100877.38
2022-12-20T17:19:21.637Z,100877.59
2022-12-20T17:24:34.146Z,100882.06
2022-12-20T17:27:01.262Z,100886.78
2022-12-20T17:29:29.976Z,100883.09
2022-12-20T17:31:58.693Z,100887.59
2022-12-20T17:34:30.821Z,100891.66
2022-12-20T17:36:58.634Z,100886.97
2022-12-20T17:39:26.411Z,100888.19
2022-12-20T17:41:55.696Z,100891.66
2022-12-20T17:44:25.303Z,100896.38
2022-12-20T17:46:54.970Z,100888.41
2022-12-20T17:49:25.490Z,100883.88
2022-12-20T17:51:52.978Z,100887.78
2022-12-20T17:54:26.871Z,100883.91
2022-12-20T17:56:54.889Z,100883.91
2022-12-20T17:59:22.446Z,100889.63
2022-12-20T18:01:49.870Z,100891.66
2022-12-20T18:04:18.452Z,100881.44
2022-12-20T18:06:46.154Z,100886.97
2022-12-20T18:09:15.919Z,100882.47
2022-12-20T18:11:43.593Z,100889.22
2022-12-20T18:14:11.681Z,100892.09
2022-12-20T18:16:39.545Z,100893.69
2022-12-20T18:19:08.453Z,100901.44
2022-12-20T18:21:36.752Z,100895.75
2022-12-20T18:24:05.678Z,100893.09
2022-12-20T18:26:33.510Z,100890.66
2022-12-20T18:29:02.565Z,100893.50
2022-12-20T18:31:32.455Z,100892.47
2022-12-20T18:34:01.070Z,100887.59
2022-12-20T18:36:30.367Z,100879.00
2022-12-20T18:39:00.818Z,100876.56
2022-12-20T18:41:30.038Z,100874.31
2022-12-20T18:43:59.131Z,100869.22
2022-12-20T18:46:26.713Z,100884.13
2022-12-20T18:48:56.318Z,100879.81
2022-12-20T18:51:26.305Z,100879.00
2022-12-20T18:53:55.885Z,100876.16
2022-12-20T18:56:28.579Z,100868.22
2022-12-20T18:59:03.016Z,100872.47
2022-12-20T19:01:35.972Z,100869.59
2022-12-20T19:04:05.794Z,100868.81
2022-12-20T19:06:33.201Z,100867.16
2022-12-20T19:09:00.882Z,100859.00
2022-12-20T19:11:29.268Z,100867.56
2022-12-20T19:13:56.589Z,100865.75
2022-12-20T19:16:26.557Z,100866.75
2022-12-20T19:18:53.986Z,100866.75
2022-12-20T19:21:26.790Z,100866.75
2022-12-20T19:23:56.834Z,100863.31
2022-12-20T19:26:27.122Z,100866.53
2022-12-20T19:28:55.964Z,100864.31
2022-12-20T19:31:26.213Z,100865.13
2022-12-20T19:33:55.808Z,100859.00
2022-12-20T19:36:25.783Z,100864.69
2022-12-20T19:38:56.535Z,100865.50
2022-12-20T19:41:25.810Z,100865.06
2022-12-20T19:43:52.979Z,100868.56
2022-12-20T19:46:28.431Z,100867.13
2022-12-20T19:48:58.208Z,100856.94
2022-12-20T19:51:26.506Z,100859.59
2022-12-20T19:53:55.861Z,100859.00
2022-12-20T19:56:25.548Z,100864.31
2022-12-20T19:58:53.682Z,100857.97
2022-12-20T20:01:25.680Z,100859.84
2022-12-20T20:03:53.763Z,100854.72
2022-12-20T20:06:21.537Z,100854.72
2022-12-20T20:08:49.680Z,100859.19
2022-12-20T20:11:18.856Z,100864.50
2022-12-20T20:13:46.350Z,100868.34
2022-12-20T20:16:18.414Z,100867.53
2022-12-20T20:18:50.734Z,100865.06
2022-12-20T20:21:23.258Z,100862.63
2022-12-20T20:23:52.530Z,100862.25
2022-12-20T20:26:23.326Z,100863.03
2022-12-20T20:28:51.334Z,100868.78
2022-12-20T20:31:19.825Z,100859.78
2022-12-20T20:33:47.115Z,100861.41
2022-12-20T20:36:18.054Z,100865.06
2022-12-20T20:38:46.172Z,100854.91
2022-12-20T20:41:14.028Z,100858.16
2022-12-20T20:43:41.814Z,100854.47
2022-12-20T20:46:13.218Z,100851.00
2022-12-20T20:48:41.221Z,100866.72
2022-12-20T20:51:08.444Z,100859.38
2022-12-20T20:53:36.922Z,100868.34
2022-12-20T20:56:05.737Z,100863.47
2022-12-20T20:58:33.269Z,100869.56
2022-12-20T21:01:04.126Z,100859.78
2022-12-20T21:03:32.271Z,100854.25
2022-12-20T21:06:34.954Z,100850.56
2022-12-20T21:08:47.848Z,100841.00
2022-12-20T21:11:15.041Z,100841.00
2022-12-20T21:13:42.007Z,100842.03
2022-12-20T21:16:11.655Z,100846.50
2022-12-20T21:18:38.636Z,100847.94
2022-12-20T21:21:08.213Z,100848.56
2022-12-20T21:23:35.158Z,100853.84
2022-12-20T21:26:03.897Z,100850.59
2022-12-20T21:28:31.578Z,100852.25
2022-12-20T21:31:00.021Z,100861.22
2022-12-20T21:33:27.558Z,100861.00
2022-12-20T21:36:02.717Z,100866.91
2022-12-20T21:38:30.246Z,100864.25
2022-12-20T21:41:01.455Z,100864.66
2022-12-20T21:43:30.031Z,100859.34
2022-12-20T21:45:57.356Z,100856.09
2022-12-20T21:48:25.942Z,100854.03
2022-12-20T21:51:01.158Z,100852.44
2022-12-20T21:53:28.544Z,100859.78
2022-12-20T21:55:56.469Z,100843.66
2022-12-20T21:58:24.243Z,100850.00
2022-12-20T22:00:55.796Z,100853.25
2022-12-20T22:03:24.700Z,100846.72
2022-12-20T22:05:54.364Z,100854.03
2022-12-20T22:08:23.144Z,100850.00
2022-12-20T22:11:00.060Z,100844.66
2022-12-20T22:13:27.882Z,100840.56
2022-12-20T22:15:56.677Z,100847.91
2022-12-20T22:18:24.502Z,100851.56
2022-12-20T22:20:51.771Z,100845.03
2022-12-20T22:23:18.695Z,100852.38
2022-12-20T22:25:45.614Z,100852.00
2022-12-20T22:28:12.798Z,100849.94
2022-12-20T22:30:41.197Z,100857.91
2022-12-20T22:33:09.732Z,100850.13
2022-12-20T22:35:37.492Z,100849.34
2022-12-20T22:38:05.250Z,100849.56
2022-12-20T22:40:32.465Z,100842.22
2022-12-20T22:42:59.382Z,100838.94
2022-12-20T22:45:26.389Z,100838.94
2022-12-20T22:47:53.320Z,100840.78
2022-12-20T22:50:21.622Z,100836.91
2022-12-20T22:52:48.489Z,100838.13
2022-12-20T22:55:15.879Z,100838.13
2022-12-20T22:57:42.834Z,100845.47
2022-12-20T23:00:13.049Z,100835.69
2022-12-20T23:02:40.822Z,100836.47
2022-12-20T23:05:09.398Z,100831.00
2022-12-20T23:07:37.635Z,100831.00
2022-12-20T23:10:25.693Z,100836.47
2022-12-20T23:13:27.958Z,100835.88
2022-12-20T23:15:54.840Z,100838.75
2022-12-20T23:18:21.736Z,100853.81
2022-12-20T23:21:22.197Z,100851.16
2022-12-20T23:23:55.710Z,100856.88
2022-12-20T23:26:23.361Z,100856.88
2022-12-20T23:28:50.969Z,100851.16
2022-12-20T23:31:17.923Z,100853.59
2022-12-20T23:33:44.894Z,100852.00
2022-12-20T23:36:12.306Z,100851.78
2022-12-20T23:38:39.700Z,100855.47
2022-12-20T23:41:10.447Z,100852.00
2022-12-20T23:43:38.307Z,100862.00
2022-12-20T23:46:09.054Z,100861.59
2022-12-20T23:48:36.397Z,100857.72
2022-12-20T23:51:04.237Z,100860.16
2022-12-20T23:53:31.665Z,100849.34
2022-12-20T23:56:02.131Z,100850.38
2022-12-20T23:58:30.811Z,100856.50
